createdAt,value
2023-02-11T00:01:29.663Z,-1.15
2023-02-11T00:03:57.663Z,-0.95
2023-02-11T00:06:26.029Z,-1.51
2023-02-11T00:08:52.932Z,-1.13
2023-02-11T00:11:21.046Z,-0.99
2023-02-11T00:13:48.640Z,-2.91
2023-02-11T00:16:18.352Z,-1.23
2023-02-11T00:18:45.548Z,-1.29
2023-02-11T00:21:14.710Z,-1.09
2023-02-11T00:23:42.574Z,-1.29
2023-02-11T00:26:14.485Z,-3.19
2023-02-11T00:28:43.195Z,-2.63
2023-02-11T00:31:11.270Z,-1.69
2023-02-11T00:33:38.499Z,-1.01
2023-02-11T00:36:07.915Z,-1.18
2023-02-11T00:38:34.680Z,-1.11
2023-02-11T00:41:01.765Z,-1.39
2023-02-11T00:43:28.711Z,-1.28
2023-02-11T00:45:55.412Z,-1.10
2023-02-11T00:48:23.487Z,-1.13
2023-02-11T00:50:50.416Z,-1.12
2023-02-11T00:53:17.128Z,-1.91
2023-02-11T00:55:43.755Z,-1.13
2023-02-11T00:58:10.470Z,-1.46
2023-02-11T01:00:37.128Z,-1.53
2023-02-11T01:03:04.070Z,-2.82
2023-02-11T01:05:31.664Z,-1.81
2023-02-11T01:07:59.170Z,-1.42
2023-02-11T01:10:26.106Z,-4.86
2023-02-11T01:12:52.891Z,-2.50
2023-02-11T01:15:20.925Z,-1.07
2023-02-11T01:17:47.752Z,-4.79
2023-02-11T01:20:20.366Z,-0.85
2023-02-11T01:22:47.329Z,-0.99
2023-02-11T01:25:15.793Z,-1.86
2023-02-11T01:27:42.669Z,-1.32
2023-02-11T01:30:13.556Z,-2.66
2023-02-11T01:32:41.117Z,-0.65
2023-02-11T01:35:09.216Z,-1.16
2023-02-11T01:37:36.676Z,-1.21
2023-02-11T01:40:06.808Z,-0.66
2023-02-11T01:42:34.827Z,-0.75
2023-02-11T01:45:22.221Z,-0.70
2023-02-11T01:47:49.026Z,-0.64
2023-02-11T01:50:15.999Z,-2.97
2023-02-11T01:52:43.947Z,-4.11
2023-02-11T01:55:12.751Z,-1.03
2023-02-11T01:57:44.748Z,-3.51
2023-02-11T02:00:30.498Z,-0.80
2023-02-11T02:03:17.932Z,-0.63
2023-02-11T02:06:03.568Z,-0.98
2023-02-11T02:08:39.373Z,-0.83
2023-02-11T02:11:07.127Z,-0.95
2023-02-11T02:13:36.948Z,-0.90
2023-02-11T02:16:09.683Z,-1.01
2023-02-11T02:19:01.139Z,-0.81
2023-02-11T02:21:52.541Z,-0.95
2023-02-11T02:24:38.081Z,-0.72
2023-02-11T02:27:11.895Z,-0.60
2023-02-11T02:30:04.425Z,-0.71
2023-02-11T02:32:57.509Z,-0.72
2023-02-11T02:35:48.771Z,-0.61
2023-02-11T02:38:34.001Z,-0.46
2023-02-11T02:41:15.190Z,-0.69
2023-02-11T02:43:45.323Z,-0.70
2023-02-11T02:46:22.145Z,-1.03
2023-02-11T02:48:50.143Z,-1.47
2023-02-11T02:51:44.177Z,-0.70
2023-02-11T02:54:31.135Z,-0.64
2023-02-11T02:57:22.392Z,-0.63
2023-02-11T02:59:55.131Z,-0.38
2023-02-11T03:02:31.579Z,-0.46
2023-02-11T03:05:30.717Z,-0.44
2023-02-11T03:08:09.454Z,-0.48
2023-02-11T03:10:41.185Z,-0.51
2023-02-11T03:13:08.229Z,-0.57
2023-02-11T03:15:42.029Z,-0.82
2023-02-11T03:18:11.853Z,-0.99
2023-02-11T03:20:41.896Z,-0.83
2023-02-11T03:23:16.195Z,-0.83
2023-02-11T03:25:50.765Z,-1.17
2023-02-11T03:28:33.570Z,-0.32
2023-02-11T03:31:17.703Z,-0.68
2023-02-11T03:34:01.951Z,-0.55
2023-02-11T03:36:46.553Z,-0.60
2023-02-11T03:39:19.484Z,-0.41
2023-02-11T03:41:49.763Z,-0.60
2023-02-11T03:44:17.166Z,-0.40
2023-02-11T03:46:50.184Z,-0.35
2023-02-11T03:49:20.433Z,-0.54
2023-02-11T03:51:51.381Z,-0.31
2023-02-11T03:54:24.498Z,-0.35
2023-02-11T03:56:54.048Z,-0.47
2023-02-11T03:59:20.648Z,-0.92
2023-02-11T04:01:47.835Z,-0.06
2023-02-11T04:04:14.844Z,-0.43
2023-02-11T04:06:41.625Z,-0.38
2023-02-11T04:09:08.262Z,-0.11
2023-02-11T04:11:35.030Z,-0.35
2023-02-11T04:14:01.820Z,-0.67
2023-02-11T04:16:29.205Z,0.02
2023-02-11T04:18:55.883Z,-0.25
2023-02-11T04:21:22.599Z,-0.73
2023-02-11T04:23:49.216Z,-0.47
2023-02-11T04:26:16.313Z,-0.32
2023-02-11T04:28:42.859Z,-0.43
2023-02-11T04:31:09.623Z,-0.70
2023-02-11T04:33:36.356Z,-0.22
2023-02-11T04:36:03.057Z,-0.62
2023-02-11T04:38:29.672Z,-2.22
2023-02-11T04:40:58.111Z,-0.28
2023-02-11T04:43:24.696Z,-0.55
2023-02-11T04:45:51.739Z,-1.05
2023-02-11T04:48:18.537Z,-0.04
2023-02-11T04:50:45.309Z,-0.62
2023-02-11T04:53:11.907Z,-0.70
2023-02-11T04:55:38.710Z,-2.32
2023-02-11T04:58:05.292Z,-0.24
2023-02-11T05:00:32.134Z,-2.37
2023-02-11T05:02:58.818Z,-0.40
2023-02-11T05:05:25.564Z,-0.97
2023-02-11T05:07:52.146Z,-2.04
2023-02-11T05:10:18.931Z,-0.30
2023-02-11T05:12:48.259Z,-1.50
2023-02-11T05:15:15.195Z,-0.57
2023-02-11T05:17:41.857Z,-0.47
2023-02-11T05:20:09.249Z,-0.28
2023-02-11T05:22:35.830Z,-0.86
2023-02-11T05:25:02.604Z,-0.54
2023-02-11T05:27:29.281Z,0.07
2023-02-11T05:29:55.966Z,-1.37
2023-02-11T05:32:23.071Z,-0.59
2023-02-11T05:34:49.795Z,-0.98
2023-02-11T05:37:16.428Z,-0.04
2023-02-11T05:39:43.220Z,-0.15
2023-02-11T05:42:09.844Z,-0.20
2023-02-11T05:44:36.612Z,-1.29
2023-02-11T05:47:03.450Z,-0.13
2023-02-11T05:49:30.387Z,-0.14
2023-02-11T05:51:57.326Z,-0.74
2023-02-11T05:54:24.067Z,-0.69
2023-02-11T05:56:50.667Z,-2.37
2023-02-11T05:59:17.406Z,-1.80
2023-02-11T06:01:44.405Z,-0.23
2023-02-11T06:04:11.295Z,-0.75
2023-02-11T06:06:38.050Z,-0.58
2023-02-11T06:09:04.964Z,-0.49
2023-02-11T06:11:31.709Z,-0.75
2023-02-11T06:13:58.381Z,-0.52
2023-02-11T06:16:25.184Z,-1.38
2023-02-11T06:18:51.891Z,-0.49
2023-02-11T06:21:18.691Z,-0.23
2023-02-11T06:23:46.626Z,-0.45
2023-02-11T06:26:22.112Z,0.00
2023-02-11T06:28:49.131Z,-0.00
2023-02-11T06:31:16.711Z,0.02
2023-02-11T06:33:44.032Z,0.01
2023-02-11T06:36:17.299Z,-0.50
2023-02-11T06:38:44.317Z,-0.62
2023-02-11T06:41:12.840Z,-0.23
2023-02-11T06:43:40.333Z,-0.26
2023-02-11T06:46:08.536Z,-0.89
2023-02-11T06:48:35.801Z,-1.04
2023-02-11T06:51:08.169Z,-0.70
2023-02-11T06:53:37.062Z,-0.44
2023-02-11T06:56:09.086Z,-1.72
2023-02-11T06:58:36.832Z,-0.30
2023-02-11T07:01:11.759Z,-0.23
2023-02-11T07:03:45.447Z,-0.69
2023-02-11T07:06:17.739Z,-0.99
2023-02-11T07:08:46.028Z,-0.72
2023-02-11T07:11:24.395Z,-1.39
2023-02-11T07:13:53.400Z,-0.17
2023-02-11T07:16:20.533Z,-0.27
2023-02-11T07:18:48.686Z,-0.72
2023-02-11T07:21:18.801Z,-0.87
2023-02-11T07:23:46.310Z,-0.27
2023-02-11T07:26:18.021Z,-1.40
2023-02-11T07:28:46.899Z,-0.10
2023-02-11T07:31:28.160Z,-0.89
2023-02-11T07:33:57.059Z,-0.59
2023-02-11T07:36:23.790Z,-0.26
2023-02-11T07:38:50.705Z,-0.85
2023-02-11T07:41:20.472Z,-0.10
2023-02-11T07:43:47.612Z,-0.03
2023-02-11T07:46:21.253Z,-0.03
2023-02-11T07:48:48.476Z,-0.06
2023-02-11T07:51:16.219Z,0.20
2023-02-11T07:53:43.612Z,-1.61
2023-02-11T07:56:12.153Z,-0.01
2023-02-11T07:58:39.420Z,0.09
2023-02-11T08:01:09.026Z,-1.33
2023-02-11T08:03:37.828Z,-0.06
2023-02-11T08:06:10.729Z,-0.59
2023-02-11T08:08:38.706Z,-0.61
2023-02-11T08:11:18.191Z,-0.41
2023-02-11T08:13:45.709Z,-0.22
2023-02-11T08:16:23.146Z,-0.26
2023-02-11T08:18:51.206Z,-0.80
2023-02-11T08:21:18.374Z,-0.68
2023-02-11T08:23:46.380Z,-0.19
2023-02-11T08:26:19.611Z,-0.31
2023-02-11T08:28:48.186Z,-0.15
2023-02-11T08:31:21.000Z,-0.61
2023-02-11T08:33:48.798Z,-0.52
2023-02-11T08:36:22.515Z,-1.36
2023-02-11T08:38:49.457Z,-1.23
2023-02-11T08:41:17.918Z,-0.18
2023-02-11T08:43:46.007Z,-0.68
2023-02-11T08:46:15.660Z,-0.96
2023-02-11T08:48:43.654Z,-0.42
2023-02-11T08:51:15.333Z,-0.09
2023-02-11T08:53:42.336Z,-0.36
2023-02-11T08:56:12.237Z,-0.21
2023-02-11T08:58:40.484Z,-0.78
2023-02-11T09:01:23.090Z,0.10
2023-02-11T09:03:50.058Z,-0.28
2023-02-11T09:06:16.932Z,-0.07
2023-02-11T09:08:46.482Z,0.05
2023-02-11T09:11:13.637Z,0.49
2023-02-11T09:13:41.398Z,-0.15
2023-02-11T09:16:08.354Z,-0.33
2023-02-11T09:18:35.061Z,0.27
2023-02-11T09:21:03.696Z,-0.46
2023-02-11T09:23:30.846Z,0.50
2023-02-11T09:25:57.471Z,-0.85
2023-02-11T09:28:24.251Z,0.53
2023-02-11T09:30:52.626Z,0.34
2023-02-11T09:33:19.547Z,-0.07
2023-02-11T09:35:46.145Z,0.69
2023-02-11T09:38:12.886Z,0.31
2023-02-11T09:40:45.157Z,-0.18
2023-02-11T09:43:33.155Z,0.08
2023-02-11T09:46:00.916Z,0.52
2023-02-11T09:48:34.727Z,0.92
2023-02-11T09:51:04.042Z,0.34
2023-02-11T09:53:42.245Z,0.72
2023-02-11T09:56:15.423Z,0.84
2023-02-11T09:58:44.270Z,0.36
2023-02-11T10:01:35.653Z,0.68
2023-02-11T10:04:42.851Z,0.52
2023-02-11T10:07:29.679Z,0.86
2023-02-11T10:10:23.249Z,-0.39
2023-02-11T10:13:32.943Z,0.98
2023-02-11T10:16:32.966Z,1.07
2023-02-11T10:20:18.057Z,0.73
2023-02-11T10:29:41.437Z,-1.04
2023-02-11T10:32:26.860Z,0.71
2023-02-11T10:34:59.359Z,1.05
2023-02-11T10:37:26.220Z,-0.56
2023-02-11T10:39:52.942Z,-1.34
2023-02-11T10:42:19.740Z,1.24
2023-02-11T10:44:54.552Z,-0.14
2023-02-11T10:47:24.433Z,0.76
2023-02-11T10:49:54.195Z,1.32
2023-02-11T10:52:24.567Z,0.13
2023-02-11T10:55:11.707Z,1.45
2023-02-11T10:57:49.880Z,1.28
2023-02-11T11:00:43.244Z,1.69
2023-02-11T11:03:22.022Z,1.26
2023-02-11T11:05:57.427Z,1.67
2023-02-11T11:08:46.725Z,1.89
2023-02-11T11:11:19.753Z,1.67
2023-02-11T11:13:52.691Z,2.08
2023-02-11T11:16:19.560Z,2.21
2023-02-11T11:18:50.899Z,2.13
2023-02-11T11:21:25.587Z,2.44
2023-02-11T11:24:01.781Z,2.59
2023-02-11T11:26:44.960Z,1.57
2023-02-11T11:29:17.877Z,-0.94
2023-02-11T11:31:59.566Z,2.22
2023-02-11T11:34:43.674Z,0.68
2023-02-11T11:37:29.550Z,2.36
2023-02-11T11:40:24.525Z,2.36
2023-02-11T11:43:23.354Z,2.90
2023-02-11T11:45:59.348Z,2.23
2023-02-11T11:48:53.726Z,-0.71
2023-02-11T11:51:41.810Z,2.37
2023-02-11T11:54:18.098Z,2.29
2023-02-11T11:57:05.543Z,2.17
2023-02-11T11:59:33.496Z,2.39
2023-02-11T12:02:29.730Z,2.03
2023-02-11T12:05:23.457Z,2.57
2023-02-11T12:08:09.153Z,2.32
2023-02-11T12:11:01.150Z,2.33
2023-02-11T12:13:52.976Z,2.13
2023-02-11T12:16:31.061Z,2.17
2023-02-11T12:19:10.397Z,0.94
2023-02-11T12:22:12.582Z,2.31
2023-02-11T12:24:53.948Z,0.85
2023-02-11T12:27:26.624Z,2.12
2023-02-11T12:30:08.150Z,1.38
2023-02-11T12:32:53.456Z,1.95
2023-02-11T12:35:39.239Z,2.04
2023-02-11T12:38:23.493Z,1.67
2023-02-11T12:41:01.892Z,2.00
2023-02-11T12:43:40.836Z,1.98
2023-02-11T12:46:43.229Z,1.01
2023-02-11T12:49:28.565Z,1.88
2023-02-11T12:52:14.175Z,1.61
2023-02-11T12:54:48.661Z,1.29
2023-02-11T12:57:23.454Z,1.41
2023-02-11T13:00:13.833Z,1.74
2023-02-11T13:03:06.289Z,1.23
2023-02-11T13:05:36.018Z,2.03
2023-02-11T13:08:12.219Z,2.07
2023-02-11T13:10:43.497Z,0.63
2023-02-11T13:13:25.337Z,1.78
2023-02-11T13:15:58.585Z,1.58
2023-02-11T13:18:52.259Z,1.99
2023-02-11T13:21:29.407Z,1.15
2023-02-11T13:24:01.494Z,1.83
2023-02-11T13:26:50.315Z,1.90
2023-02-11T13:29:30.090Z,1.76
2023-02-11T13:32:11.088Z,1.73
2023-02-11T13:34:43.939Z,1.91
2023-02-11T13:37:26.275Z,1.70
2023-02-11T13:40:01.112Z,2.16
2023-02-11T13:42:29.928Z,1.90
2023-02-11T13:44:57.011Z,1.89
2023-02-11T13:47:31.717Z,1.99
2023-02-11T13:50:00.588Z,1.56
2023-02-11T13:52:30.821Z,1.77
2023-02-11T13:55:04.769Z,1.44
2023-02-11T13:57:36.518Z,1.61
2023-02-11T14:00:44.409Z,1.94
2023-02-11T14:03:12.512Z,2.01
2023-02-11T14:06:07.938Z,1.88
2023-02-11T14:08:36.329Z,1.76
2023-02-11T14:11:10.970Z,0.48
2023-02-11T14:14:03.404Z,1.94
2023-02-11T14:16:37.932Z,-0.18
2023-02-11T14:19:05.577Z,1.36
2023-02-11T14:21:36.472Z,1.08
2023-02-11T14:24:03.144Z,1.88
2023-02-11T14:26:58.366Z,2.03
2023-02-11T14:29:44.104Z,1.76
2023-02-11T14:32:45.912Z,2.07
2023-02-11T14:35:38.898Z,1.75
2023-02-11T14:38:18.005Z,1.69
2023-02-11T14:40:50.190Z,1.49
2023-02-11T14:43:22.654Z,1.78
2023-02-11T14:45:55.592Z,1.88
2023-02-11T14:48:29.484Z,0.88
2023-02-11T14:51:06.774Z,1.85
2023-02-11T14:53:34.883Z,1.17
2023-02-11T14:56:01.528Z,1.82
2023-02-11T14:58:31.100Z,1.45
2023-02-11T15:01:06.768Z,2.05
2023-02-11T15:03:38.970Z,1.91
2023-02-11T15:06:22.310Z,1.85
2023-02-11T15:08:52.928Z,2.00
2023-02-11T15:11:22.367Z,1.00
2023-02-11T15:13:50.020Z,1.69
2023-02-11T15:16:21.072Z,1.48
2023-02-11T15:18:56.832Z,1.18
2023-02-11T15:21:26.411Z,1.63
2023-02-11T15:24:09.250Z,1.49
2023-02-11T15:26:35.928Z,0.98
2023-02-11T15:29:02.518Z,1.64
2023-02-11T15:31:30.112Z,1.02
2023-02-11T15:34:07.206Z,1.66
2023-02-11T15:36:34.092Z,1.54
2023-02-11T15:39:31.404Z,1.15
2023-02-11T15:42:23.568Z,1.53
2023-02-11T15:45:09.090Z,1.41
2023-02-11T15:47:36.244Z,1.49
2023-02-11T15:50:03.289Z,0.84
2023-02-11T15:52:30.940Z,1.07
2023-02-11T15:55:00.603Z,1.59
2023-02-11T15:57:28.330Z,0.65
2023-02-11T15:59:55.925Z,0.49
2023-02-11T16:02:32.260Z,1.24
2023-02-11T16:05:03.046Z,1.29
2023-02-11T16:07:41.779Z,1.53
2023-02-11T16:10:31.377Z,1.77
2023-02-11T16:13:07.199Z,1.67
2023-02-11T16:15:33.863Z,1.70
2023-02-11T16:18:03.455Z,1.13
2023-02-11T16:20:30.745Z,1.15
2023-02-11T16:22:57.564Z,0.78
2023-02-11T16:25:24.347Z,0.77
2023-02-11T16:27:54.548Z,-0.50
2023-02-11T16:30:42.173Z,1.09
2023-02-11T16:33:11.296Z,0.24
2023-02-11T16:35:37.874Z,1.39
2023-02-11T16:38:05.564Z,1.81
2023-02-11T16:40:32.258Z,0.96
2023-02-11T16:42:58.929Z,1.19
2023-02-11T16:45:25.679Z,1.59
2023-02-11T16:47:52.816Z,1.09
2023-02-11T16:50:22.873Z,1.47
2023-02-11T16:52:49.860Z,1.53
2023-02-11T16:55:16.667Z,1.08
2023-02-11T16:57:43.353Z,1.07
2023-02-11T17:00:11.557Z,1.49
2023-02-11T17:02:39.024Z,0.94
2023-02-11T17:05:15.446Z,1.27
2023-02-11T17:07:42.143Z,1.31
2023-02-11T17:10:27.385Z,1.42
2023-02-11T17:12:55.177Z,1.22
2023-02-11T17:15:21.770Z,0.64
2023-02-11T17:17:48.441Z,-0.22
2023-02-11T17:20:15.788Z,0.99
2023-02-11T17:22:42.577Z,0.80
2023-02-11T17:25:09.446Z,0.62
2023-02-11T17:27:36.201Z,1.03
2023-02-11T17:30:03.354Z,1.42
2023-02-11T17:32:32.177Z,0.92
2023-02-11T17:34:58.834Z,-0.34
2023-02-11T17:37:25.588Z,1.24
2023-02-11T17:39:52.179Z,1.07
2023-02-11T17:42:19.011Z,1.11
2023-02-11T17:44:45.935Z,1.20
2023-02-11T17:47:15.286Z,1.61
2023-02-11T17:49:43.517Z,1.66
2023-02-11T17:52:10.291Z,0.91
2023-02-11T17:54:38.041Z,1.70
2023-02-11T17:57:05.360Z,1.25
2023-02-11T17:59:32.028Z,1.29
2023-02-11T18:01:58.691Z,1.33
2023-02-11T18:04:26.657Z,1.41
2023-02-11T18:06:56.682Z,1.56
2023-02-11T18:09:29.438Z,1.82
2023-02-11T18:12:06.214Z,1.82
2023-02-11T18:14:41.460Z,1.11
2023-02-11T18:17:09.477Z,1.07
2023-02-11T18:22:43.897Z,1.50
2023-02-11T18:25:27.323Z,-0.13
2023-02-11T18:27:55.373Z,1.06
2023-02-11T18:30:22.725Z,1.37
2023-02-11T18:32:54.210Z,1.34
2023-02-11T18:35:21.347Z,1.63
2023-02-11T18:37:48.752Z,0.66
2023-02-11T18:40:16.014Z,0.75
2023-02-11T18:42:42.900Z,1.09
2023-02-11T18:45:12.813Z,-0.30
2023-02-11T18:47:40.069Z,1.70
2023-02-11T18:50:10.152Z,1.35
2023-02-11T18:52:36.838Z,1.46
2023-02-11T18:55:04.909Z,1.49
2023-02-11T18:57:36.307Z,1.53
2023-02-11T19:00:03.800Z,1.51
2023-02-11T19:02:31.659Z,1.77
2023-02-11T19:05:00.100Z,1.46
2023-02-11T19:07:27.805Z,2.10
2023-02-11T19:09:55.974Z,2.21
2023-02-11T19:12:22.655Z,2.10
2023-02-11T19:14:49.386Z,1.90
2023-02-11T19:17:16.208Z,1.89
2023-02-11T19:19:43.051Z,1.24
2023-02-11T19:22:10.793Z,1.90
2023-02-11T19:24:37.915Z,1.22
2023-02-11T19:27:05.256Z,0.35
2023-02-11T19:29:57.804Z,2.07
2023-02-11T19:32:25.102Z,1.92
2023-02-11T19:34:52.031Z,1.43
2023-02-11T19:37:18.900Z,2.28
2023-02-11T19:39:47.281Z,1.77
2023-02-11T19:42:14.090Z,1.03
2023-02-11T19:44:41.865Z,1.77
2023-02-11T19:47:12.685Z,-1.71
2023-02-11T19:49:39.989Z,-1.16
2023-02-11T19:52:37.089Z,-0.27
2023-02-11T19:55:50.602Z,-0.95
2023-02-11T19:58:42.889Z,1.23
2023-02-11T20:01:32.408Z,-1.53
2023-02-11T20:04:08.843Z,1.24
2023-02-11T20:06:51.676Z,0.49
2023-02-11T20:09:29.096Z,2.06
2023-02-11T20:12:14.762Z,1.13
2023-02-11T20:15:04.747Z,1.25
2023-02-11T20:17:50.048Z,0.37
2023-02-11T20:23:42.196Z,-1.17
2023-02-11T20:26:36.757Z,2.17
2023-02-11T20:32:38.311Z,-1.09
2023-02-11T20:35:20.415Z,1.00
2023-02-11T20:37:48.567Z,-0.06
2023-02-11T20:40:16.872Z,0.39
2023-02-11T20:42:44.508Z,0.99
2023-02-11T20:45:13.683Z,1.49
2023-02-11T20:51:01.086Z,1.57
2023-02-11T20:54:06.524Z,-0.52
2023-02-11T20:56:59.353Z,2.01
2023-02-11T20:59:26.707Z,1.98
2023-02-11T21:01:56.010Z,1.58
2023-02-11T21:04:27.593Z,1.85
2023-02-11T21:06:57.688Z,2.14
2023-02-11T21:09:27.864Z,2.05
2023-02-11T21:11:55.406Z,1.95
2023-02-11T21:14:23.385Z,1.26
2023-02-11T21:16:52.301Z,2.06
2023-02-11T21:19:21.616Z,1.87
2023-02-11T21:21:51.384Z,0.03
2023-02-11T21:24:23.109Z,1.76
2023-02-11T21:26:49.842Z,1.68
2023-02-11T21:29:16.652Z,1.80
2023-02-11T21:31:43.427Z,0.37
2023-02-11T21:34:10.334Z,1.38
2023-02-11T21:36:41.130Z,1.81
2023-02-11T21:43:16.916Z,1.92
2023-02-11T21:50:02.715Z,-0.69
2023-02-11T21:56:34.079Z,-0.82
2023-02-11T21:59:49.962Z,1.23
2023-02-11T22:02:30.280Z,1.80
2023-02-11T22:05:01.360Z,2.21
2023-02-11T22:07:48.680Z,-1.15
2023-02-11T22:10:22.478Z,0.61
2023-02-11T22:12:52.346Z,0.12
2023-02-11T22:15:24.247Z,-1.17
2023-02-11T22:17:52.856Z,1.40
2023-02-11T22:20:19.739Z,2.05
2023-02-11T22:22:53.901Z,0.54
2023-02-11T22:25:22.304Z,1.30
2023-02-11T22:28:00.599Z,2.39
2023-02-11T22:30:46.855Z,2.27
2023-02-11T22:33:27.580Z,2.14
2023-02-11T22:36:27.300Z,2.20
2023-02-11T22:39:13.332Z,2.33
2023-02-11T22:42:06.676Z,1.98
2023-02-11T22:44:56.023Z,2.26
2023-02-11T22:47:30.644Z,2.14
2023-02-11T22:49:59.873Z,1.72
2023-02-11T22:52:30.977Z,1.71
2023-02-11T22:55:14.471Z,2.12
2023-02-11T23:06:36.474Z,2.34
2023-02-11T23:11:52.818Z,2.36
2023-02-11T23:14:32.797Z,2.48
2023-02-11T23:17:06.868Z,2.24
2023-02-11T23:22:45.301Z,2.59
2023-02-11T23:25:55.968Z,2.37
2023-02-11T23:28:51.629Z,2.51
2023-02-11T23:31:25.688Z,2.43
2023-02-11T23:33:58.451Z,2.31
2023-02-11T23:36:38.920Z,2.24
2023-02-11T23:39:07.370Z,0.67
2023-02-11T23:41:38.365Z,1.93
2023-02-11T23:44:08.023Z,2.32
2023-02-11T23:46:38.665Z,2.56
2023-02-11T23:49:07.414Z,1.97
2023-02-11T23:51:34.018Z,2.33
2023-02-11T23:54:01.871Z,2.70
2023-02-11T23:56:28.918Z,2.69
2023-02-11T23:58:58.803Z,2.69
